createdAt,value
2023-09-10T00:01:21.078Z,14.75
2023-09-10T00:03:49.082Z,16.42
2023-09-10T00:06:16.547Z,16.65
2023-09-10T00:08:44.091Z,15.68
2023-09-10T00:11:11.807Z,14.30
2023-09-10T00:13:39.840Z,11.93
2023-09-10T00:16:07.929Z,15.15
2023-09-10T00:18:36.679Z,14.68
2023-09-10T00:21:04.622Z,14.23
2023-09-10T00:23:31.776Z,13.30
2023-09-10T00:25:59.380Z,14.32
2023-09-10T00:28:27.616Z,11.88
2023-09-10T00:30:55.549Z,15.05
2023-09-10T00:33:23.205Z,15.05
2023-09-10T00:35:51.056Z,16.02
2023-09-10T00:38:18.773Z,14.45
2023-09-10T00:40:46.238Z,12.07
2023-09-10T00:43:13.714Z,12.70
2023-09-10T00:45:40.950Z,10.50
2023-09-10T00:48:08.099Z,14.95
2023-09-10T00:50:35.917Z,12.77
2023-09-10T00:53:03.363Z,13.63
2023-09-10T00:55:30.959Z,11.20
2023-09-10T00:57:58.473Z,11.32
2023-09-10T01:00:27.094Z,12.93
2023-09-10T01:02:54.394Z,10.95
2023-09-10T01:05:22.077Z,12.93
2023-09-10T01:07:49.123Z,13.43
2023-09-10T01:10:16.847Z,11.30
2023-09-10T01:13:02.227Z,9.10
2023-09-10T01:15:41.292Z,11.75
2023-09-10T01:18:17.729Z,11.68
2023-09-10T01:20:51.613Z,9.32
2023-09-10T01:23:39.254Z,9.10
2023-09-10T01:26:06.823Z,8.98
2023-09-10T01:28:34.114Z,20.60
2023-09-10T01:31:02.111Z,16.33
2023-09-10T01:33:36.611Z,9.10
2023-09-10T01:36:11.503Z,12.50
2023-09-10T01:39:03.047Z,12.75
2023-09-10T01:41:31.005Z,10.90
2023-09-10T01:43:59.013Z,9.23
2023-09-10T01:46:26.525Z,9.40
2023-09-10T01:48:54.477Z,8.43
2023-09-10T01:51:22.202Z,10.70
2023-09-10T01:53:50.081Z,9.07
2023-09-10T01:56:17.664Z,10.38
2023-09-10T01:58:45.448Z,11.85
2023-09-10T02:01:12.983Z,8.70
2023-09-10T02:03:40.381Z,10.48
2023-09-10T02:06:07.913Z,9.95
2023-09-10T02:08:35.631Z,9.80
2023-09-10T02:11:06.328Z,9.95
2023-09-10T02:13:34.111Z,10.77
2023-09-10T02:16:02.268Z,11.40
2023-09-10T02:18:30.555Z,9.18
2023-09-10T02:20:58.537Z,13.65
2023-09-10T02:23:26.862Z,11.15
2023-09-10T02:25:54.227Z,10.93
2023-09-10T02:28:24.584Z,7.75
2023-09-10T02:30:52.287Z,10.82
2023-09-10T02:33:20.061Z,9.52
2023-09-10T02:35:47.829Z,8.73
2023-09-10T02:38:15.304Z,8.23
2023-09-10T02:40:44.113Z,7.63
2023-09-10T02:43:11.751Z,6.78
2023-09-10T02:45:39.730Z,7.30
2023-09-10T02:48:07.667Z,10.80
2023-09-10T02:50:35.203Z,8.32
2023-09-10T02:53:02.668Z,10.43
2023-09-10T02:55:30.024Z,8.60
2023-09-10T02:57:57.288Z,7.13
2023-09-10T03:00:26.527Z,8.25
2023-09-10T03:02:55.464Z,8.35
2023-09-10T03:05:23.415Z,12.10
2023-09-10T03:07:55.467Z,5.70
2023-09-10T03:10:22.798Z,7.73
2023-09-10T03:12:50.191Z,7.35
2023-09-10T03:15:17.891Z,6.68
2023-09-10T03:17:45.586Z,6.82
2023-09-10T03:20:13.311Z,5.93
2023-09-10T03:22:41.430Z,9.05
2023-09-10T03:25:09.586Z,9.45
2023-09-10T03:27:37.561Z,6.18
2023-09-10T03:30:08.614Z,5.50
2023-09-10T03:32:36.322Z,6.82
2023-09-10T03:35:05.552Z,7.40
2023-09-10T03:37:33.225Z,6.63
2023-09-10T03:40:01.140Z,4.43
2023-09-10T03:42:28.481Z,7.22
2023-09-10T03:44:56.025Z,7.65
2023-09-10T03:47:24.023Z,6.85
2023-09-10T03:49:51.368Z,7.63
2023-09-10T03:52:20.527Z,5.53
2023-09-10T03:54:48.762Z,8.57
2023-09-10T03:57:16.271Z,7.07
2023-09-10T03:59:44.397Z,7.53
2023-09-10T04:02:14.824Z,7.78
2023-09-10T04:04:42.791Z,7.47
2023-09-10T04:07:10.248Z,6.93
2023-09-10T04:09:38.187Z,8.35
2023-09-10T04:12:06.092Z,7.13
2023-09-10T04:14:33.927Z,8.65
2023-09-10T04:17:01.617Z,14.00
2023-09-10T04:19:28.785Z,8.68
2023-09-10T04:21:56.320Z,8.70
2023-09-10T04:24:24.588Z,6.85
2023-09-10T04:26:52.190Z,12.98
2023-09-10T04:29:21.225Z,8.13
2023-09-10T04:31:49.275Z,9.13
2023-09-10T04:34:16.969Z,16.80
2023-09-10T04:36:44.388Z,8.27
2023-09-10T04:39:12.236Z,9.27
2023-09-10T04:41:42.051Z,7.97
2023-09-10T04:44:10.323Z,7.03
2023-09-10T04:46:38.393Z,10.85
2023-09-10T04:49:06.633Z,8.57
2023-09-10T04:51:34.044Z,19.35
2023-09-10T04:54:01.945Z,8.20
2023-09-10T04:56:29.147Z,8.50
2023-09-10T04:58:56.641Z,5.65
2023-09-10T05:01:24.172Z,7.25
2023-09-10T05:03:51.471Z,6.72
2023-09-10T05:06:20.933Z,5.70
2023-09-10T05:08:48.994Z,6.03
2023-09-10T05:11:18.286Z,4.28
2023-09-10T05:13:45.667Z,11.35
2023-09-10T05:16:13.281Z,7.00
2023-09-10T05:18:42.272Z,6.53
2023-09-10T05:21:10.542Z,9.18
2023-09-10T05:23:38.729Z,5.88
2023-09-10T05:26:06.779Z,6.18
2023-09-10T05:28:34.110Z,5.32
2023-09-10T05:31:09.100Z,4.95
2023-09-10T05:33:39.334Z,6.90
2023-09-10T05:36:06.993Z,4.88
2023-09-10T05:38:34.270Z,5.82
2023-09-10T05:41:03.195Z,6.65
2023-09-10T05:43:31.202Z,4.15
2023-09-10T05:45:58.562Z,6.13
2023-09-10T05:48:27.082Z,5.43
2023-09-10T05:50:58.248Z,15.27
2023-09-10T05:53:27.065Z,5.15
2023-09-10T05:55:55.003Z,4.72
2023-09-10T05:58:22.422Z,7.18
2023-09-10T06:00:52.884Z,3.60
2023-09-10T06:03:20.336Z,4.10
2023-09-10T06:05:49.607Z,4.15
2023-09-10T06:08:17.284Z,4.68
2023-09-10T06:10:45.607Z,4.82
2023-09-10T06:13:13.414Z,3.40
2023-09-10T06:15:41.764Z,5.80
2023-09-10T06:18:09.115Z,4.07
2023-09-10T06:20:36.569Z,4.55
2023-09-10T06:23:04.886Z,6.15
2023-09-10T06:25:33.589Z,7.05
2023-09-10T06:28:01.942Z,5.72
2023-09-10T06:30:29.728Z,6.68
2023-09-10T06:32:57.570Z,4.60
2023-09-10T06:35:26.609Z,4.38
2023-09-10T06:37:54.617Z,5.32
2023-09-10T06:40:21.963Z,3.85
2023-09-10T06:42:49.877Z,5.60
2023-09-10T06:45:32.388Z,15.50
2023-09-10T06:47:59.754Z,8.57
2023-09-10T06:50:27.266Z,8.25
2023-09-10T06:52:54.761Z,8.35
2023-09-10T06:55:22.463Z,4.88
2023-09-10T06:57:50.230Z,6.70
2023-09-10T07:00:18.526Z,5.72
2023-09-10T07:02:46.538Z,5.47
2023-09-10T07:05:14.440Z,4.43
2023-09-10T07:07:41.924Z,8.15
2023-09-10T07:10:11.356Z,6.30
2023-09-10T07:12:38.451Z,5.45
2023-09-10T07:15:06.652Z,4.97
2023-09-10T07:17:34.123Z,8.15
2023-09-10T07:20:01.640Z,8.57
2023-09-10T07:22:29.203Z,6.57
2023-09-10T07:24:56.984Z,9.38
2023-09-10T07:27:24.100Z,5.97
2023-09-10T07:29:51.904Z,5.07
2023-09-10T07:32:19.375Z,7.38
2023-09-10T07:34:46.663Z,9.48
2023-09-10T07:37:14.584Z,7.72
2023-09-10T07:39:42.068Z,6.18
2023-09-10T07:42:09.845Z,4.80
2023-09-10T07:44:37.243Z,4.78
2023-09-10T07:47:05.806Z,9.50
2023-09-10T07:49:35.635Z,6.25
2023-09-10T07:52:05.447Z,11.90
2023-09-10T07:54:32.722Z,7.38
2023-09-10T07:57:00.607Z,5.60
2023-09-10T07:59:28.121Z,7.63
2023-09-10T08:01:55.341Z,4.80
2023-09-10T08:04:22.947Z,10.30
2023-09-10T08:06:50.441Z,10.20
2023-09-10T08:09:17.587Z,7.47
2023-09-10T08:11:45.101Z,6.72
2023-09-10T08:14:13.016Z,5.72
2023-09-10T08:16:40.695Z,6.20
2023-09-10T08:19:08.371Z,5.07
2023-09-10T08:21:35.472Z,4.00
2023-09-10T08:24:03.171Z,4.68
2023-09-10T08:26:30.412Z,4.82
2023-09-10T08:28:57.678Z,12.68
2023-09-10T08:31:25.461Z,7.30
2023-09-10T08:33:52.612Z,7.20
2023-09-10T08:36:20.270Z,6.82
2023-09-10T08:38:48.784Z,8.50
2023-09-10T08:41:49.955Z,11.00
2023-09-10T08:44:20.901Z,13.50
2023-09-10T08:46:50.272Z,7.20
2023-09-10T08:49:17.494Z,9.20
2023-09-10T08:51:45.049Z,9.10
2023-09-10T08:54:12.638Z,5.97
2023-09-10T08:56:39.905Z,5.72
2023-09-10T08:59:07.325Z,12.88
2023-09-10T09:01:35.045Z,4.95
2023-09-10T09:04:02.886Z,4.47
2023-09-10T09:06:31.048Z,4.78
2023-09-10T09:08:58.467Z,6.75
2023-09-10T09:11:26.077Z,5.72
2023-09-10T09:13:53.678Z,4.03
2023-09-10T09:16:22.110Z,5.85
2023-09-10T09:18:49.774Z,6.72
2023-09-10T09:21:22.031Z,8.18
2023-09-10T09:24:09.704Z,7.73
2023-09-10T09:26:37.532Z,6.68
2023-09-10T09:29:05.303Z,18.25
2023-09-10T09:31:33.645Z,13.90
2023-09-10T09:34:00.845Z,3.90
2023-09-10T09:36:28.920Z,8.15
2023-09-10T09:38:56.872Z,4.35
2023-09-10T09:41:24.174Z,7.75
2023-09-10T09:43:52.046Z,9.60
2023-09-10T09:46:19.611Z,6.53
2023-09-10T09:48:47.484Z,4.72
2023-09-10T09:51:15.315Z,15.07
2023-09-10T09:53:43.780Z,8.52
2023-09-10T09:56:11.868Z,5.93
2023-09-10T09:58:39.854Z,5.43
2023-09-10T10:01:08.376Z,5.88
2023-09-10T10:03:36.018Z,6.20
2023-09-10T10:06:04.029Z,5.82
2023-09-10T10:08:31.627Z,3.75
2023-09-10T10:10:59.251Z,7.68
2023-09-10T10:13:27.735Z,7.80
2023-09-10T10:15:57.569Z,7.10
2023-09-10T10:18:29.919Z,6.90
2023-09-10T10:20:58.933Z,5.60
2023-09-10T10:23:27.253Z,6.13
2023-09-10T10:25:55.280Z,5.38
2023-09-10T10:28:22.728Z,7.95
2023-09-10T10:30:56.435Z,16.05
2023-09-10T10:33:25.393Z,5.47
2023-09-10T10:36:16.217Z,5.82
2023-09-10T10:38:46.997Z,6.95
2023-09-10T10:41:18.891Z,6.90
2023-09-10T10:43:48.333Z,5.28
2023-09-10T10:46:15.727Z,8.70
2023-09-10T10:48:43.967Z,4.07
2023-09-10T10:51:14.533Z,6.55
2023-09-10T10:53:42.622Z,11.48
2023-09-10T10:56:10.181Z,9.32
2023-09-10T10:58:41.488Z,6.85
2023-09-10T11:01:11.711Z,4.95
2023-09-10T11:03:39.265Z,6.57
2023-09-10T11:06:07.931Z,6.30
2023-09-10T11:08:36.330Z,8.05
2023-09-10T11:11:22.843Z,5.13
2023-09-10T11:14:07.298Z,6.47
2023-09-10T11:16:39.889Z,9.77
2023-09-10T11:19:07.145Z,6.13
2023-09-10T11:21:56.181Z,7.82
2023-09-10T11:24:23.541Z,5.07
2023-09-10T11:26:51.146Z,8.27
2023-09-10T11:29:21.471Z,9.40
2023-09-10T11:31:49.007Z,6.55
2023-09-10T11:34:16.360Z,7.50
2023-09-10T11:36:44.975Z,6.65
2023-09-10T11:39:16.316Z,6.25
2023-09-10T11:41:52.926Z,5.63
2023-09-10T11:44:20.691Z,8.55
2023-09-10T11:46:49.406Z,6.20
2023-09-10T11:49:16.659Z,8.55
2023-09-10T11:51:48.882Z,5.80
2023-09-10T11:54:17.779Z,7.18
2023-09-10T11:56:56.971Z,7.50
2023-09-10T11:59:30.852Z,9.88
2023-09-10T12:01:58.878Z,12.55
2023-09-10T12:04:33.552Z,6.95
2023-09-10T12:07:04.227Z,6.78
2023-09-10T12:09:32.334Z,11.73
2023-09-10T12:12:07.823Z,10.05
2023-09-10T12:14:35.478Z,6.82
2023-09-10T12:17:03.997Z,8.60
2023-09-10T12:19:32.699Z,10.00
2023-09-10T12:22:00.717Z,11.30
2023-09-10T12:24:28.044Z,12.98
2023-09-10T12:26:55.428Z,8.93
2023-09-10T12:29:23.130Z,12.48
2023-09-10T12:31:54.162Z,13.40
2023-09-10T12:34:21.707Z,16.20
2023-09-10T12:36:49.797Z,19.85
2023-09-10T12:39:24.802Z,16.23
2023-09-10T12:42:03.030Z,14.80
2023-09-10T12:44:31.728Z,13.80
2023-09-10T12:46:59.518Z,16.08
2023-09-10T12:49:27.164Z,13.55
2023-09-10T12:51:56.664Z,8.93
2023-09-10T12:54:24.454Z,9.82
2023-09-10T12:56:54.944Z,8.95
2023-09-10T12:59:22.760Z,10.45
2023-09-10T13:01:51.108Z,15.68
2023-09-10T13:04:19.314Z,17.20
2023-09-10T13:06:47.043Z,17.27
2023-09-10T13:09:14.705Z,15.75
2023-09-10T13:11:43.915Z,16.23
2023-09-10T13:14:11.266Z,14.90
2023-09-10T13:16:38.783Z,14.30
2023-09-10T13:19:06.525Z,12.90
2023-09-10T13:21:34.170Z,13.30
2023-09-10T13:24:01.619Z,15.10
2023-09-10T13:26:29.226Z,14.07
2023-09-10T13:28:57.205Z,14.52
2023-09-10T13:31:24.517Z,15.98
2023-09-10T13:33:54.794Z,22.73
2023-09-10T13:36:22.123Z,20.98
2023-09-10T13:38:49.685Z,15.50
2023-09-10T13:41:17.255Z,20.38
2023-09-10T13:43:45.049Z,21.98
2023-09-10T13:46:12.693Z,18.92
2023-09-10T13:48:40.238Z,27.60
2023-09-10T13:51:09.156Z,34.58
2023-09-10T13:53:43.504Z,17.42
2023-09-10T13:56:12.098Z,31.70
2023-09-10T13:58:39.717Z,18.52
2023-09-10T14:01:08.827Z,16.45
2023-09-10T14:03:36.295Z,22.83
2023-09-10T14:06:05.456Z,22.75
2023-09-10T14:08:33.097Z,29.75
2023-09-10T14:11:00.872Z,21.25
2023-09-10T14:13:28.541Z,17.00
2023-09-10T14:15:56.107Z,14.95
2023-09-10T14:18:23.680Z,23.35
2023-09-10T14:20:51.376Z,18.73
2023-09-10T14:23:19.190Z,19.23
2023-09-10T14:25:48.733Z,17.85
2023-09-10T14:28:19.544Z,20.30
2023-09-10T14:30:46.869Z,22.05
2023-09-10T14:33:14.142Z,22.95
2023-09-10T14:35:43.267Z,16.60
2023-09-10T14:38:11.093Z,21.65
2023-09-10T14:40:38.421Z,18.92
2023-09-10T14:43:09.031Z,16.38
2023-09-10T14:45:37.618Z,21.85
2023-09-10T14:48:05.542Z,11.70
2023-09-10T14:50:33.110Z,9.45
2023-09-10T14:53:03.606Z,14.07
2023-09-10T14:55:32.596Z,14.20
2023-09-10T14:57:59.914Z,12.27
2023-09-10T15:00:27.398Z,11.27
2023-09-10T15:02:54.754Z,15.88
2023-09-10T15:05:22.414Z,14.50
2023-09-10T15:07:50.220Z,9.55
2023-09-10T15:10:17.606Z,10.40
2023-09-10T15:12:45.414Z,7.55
2023-09-10T15:15:13.240Z,7.82
2023-09-10T15:17:40.950Z,12.93
2023-09-10T15:20:11.977Z,7.28
2023-09-10T15:22:40.173Z,6.75
2023-09-10T15:25:09.391Z,9.80
2023-09-10T15:27:37.137Z,9.60
2023-09-10T15:30:05.321Z,7.78
2023-09-10T15:32:32.846Z,6.18
2023-09-10T15:35:00.622Z,6.40
2023-09-10T15:37:28.545Z,7.57
2023-09-10T15:39:56.018Z,6.03
2023-09-10T15:42:23.546Z,6.20
2023-09-10T15:44:51.044Z,5.90
2023-09-10T15:47:18.843Z,7.25
2023-09-10T15:49:46.194Z,8.27
2023-09-10T15:52:14.547Z,7.10
2023-09-10T15:54:41.938Z,6.35
2023-09-10T15:57:09.629Z,9.57
2023-09-10T15:59:37.077Z,5.68
2023-09-10T16:02:32.909Z,9.30
2023-09-10T16:05:01.125Z,5.15
2023-09-10T16:07:28.721Z,7.35
2023-09-10T16:09:56.277Z,9.40
2023-09-10T16:12:23.713Z,6.07
2023-09-10T16:14:50.908Z,10.93
2023-09-10T16:17:18.575Z,5.28
2023-09-10T16:19:46.132Z,8.40
2023-09-10T16:22:14.680Z,10.15
2023-09-10T16:24:41.800Z,23.40
2023-09-10T16:27:09.313Z,20.92
2023-09-10T16:29:37.455Z,25.25
2023-09-10T16:32:05.582Z,22.38
2023-09-10T16:34:32.894Z,27.33
2023-09-10T16:37:00.396Z,25.83
2023-09-10T16:39:28.198Z,31.23
2023-09-10T16:41:55.486Z,32.17
2023-09-10T16:44:28.663Z,27.55
2023-09-10T16:46:59.357Z,25.02
2023-09-10T16:49:27.216Z,25.55
2023-09-10T16:51:54.583Z,36.90
2023-09-10T16:54:22.112Z,28.67
2023-09-10T16:56:49.672Z,33.67
2023-09-10T16:59:17.501Z,29.23
2023-09-10T17:01:44.832Z,28.42
2023-09-10T17:04:12.227Z,35.05
2023-09-10T17:06:39.761Z,34.90
2023-09-10T17:09:07.171Z,21.42
2023-09-10T17:11:35.107Z,23.00
2023-09-10T17:14:02.613Z,19.45
2023-09-10T17:16:29.939Z,26.98
2023-09-10T17:18:57.206Z,27.17
2023-09-10T17:21:28.069Z,23.80
2023-09-10T17:23:55.699Z,22.63
2023-09-10T17:26:23.291Z,24.13
2023-09-10T17:28:51.431Z,31.88
2023-09-10T17:31:19.346Z,26.13
2023-09-10T17:33:46.464Z,25.48
2023-09-10T17:36:13.841Z,20.13
2023-09-10T17:38:41.487Z,22.95
2023-09-10T17:41:08.943Z,30.48
2023-09-10T17:43:36.849Z,32.20
2023-09-10T17:46:04.421Z,26.90
2023-09-10T17:48:31.967Z,26.75
2023-09-10T17:51:05.175Z,31.23
2023-09-10T17:53:32.999Z,30.55
2023-09-10T17:56:00.431Z,21.42
2023-09-10T17:58:28.439Z,22.58
2023-09-10T18:00:55.844Z,27.83
2023-09-10T18:03:27.070Z,20.60
2023-09-10T18:05:54.295Z,28.33
2023-09-10T18:08:21.832Z,28.45
2023-09-10T18:10:51.628Z,27.15
2023-09-10T18:13:19.007Z,27.10
2023-09-10T18:15:46.586Z,25.80
2023-09-10T18:18:14.010Z,29.02
2023-09-10T18:20:41.809Z,30.55
2023-09-10T18:23:09.817Z,37.35
2023-09-10T18:25:36.919Z,36.88
2023-09-10T18:28:04.632Z,29.35
2023-09-10T18:30:32.525Z,29.70
2023-09-10T18:33:00.481Z,25.98
2023-09-10T18:35:28.120Z,32.40
2023-09-10T18:37:55.770Z,33.78
2023-09-10T18:40:23.169Z,35.00
2023-09-10T18:42:50.536Z,28.52
2023-09-10T18:45:18.352Z,29.35
2023-09-10T18:47:51.736Z,31.65
2023-09-10T18:50:19.187Z,33.95
2023-09-10T18:52:46.436Z,39.60
2023-09-10T18:55:15.261Z,32.08
2023-09-10T18:57:42.478Z,40.72
2023-09-10T19:00:10.906Z,34.42
2023-09-10T19:02:38.457Z,33.35
2023-09-10T19:05:06.578Z,31.90
2023-09-10T19:07:34.246Z,35.70
2023-09-10T19:10:01.794Z,32.20
2023-09-10T19:12:30.108Z,33.58
2023-09-10T19:14:57.300Z,32.63
2023-09-10T19:17:24.965Z,38.72
2023-09-10T19:19:52.625Z,31.42
2023-09-10T19:22:20.009Z,33.28
2023-09-10T19:24:47.162Z,32.53
2023-09-10T19:27:16.919Z,27.52
2023-09-10T19:29:44.471Z,30.88
2023-09-10T19:32:11.910Z,29.33
2023-09-10T19:34:39.522Z,30.13
2023-09-10T19:37:09.831Z,31.85
2023-09-10T19:39:38.275Z,24.95
2023-09-10T19:42:05.905Z,30.63
2023-09-10T19:44:36.746Z,31.45
2023-09-10T19:47:04.622Z,34.08
2023-09-10T19:49:35.211Z,50.13
2023-09-10T19:52:02.405Z,32.78
2023-09-10T19:54:30.212Z,34.38
2023-09-10T19:56:57.755Z,34.33
2023-09-10T19:59:25.757Z,31.85
2023-09-10T20:01:54.033Z,28.80
2023-09-10T20:04:21.304Z,32.13
2023-09-10T20:06:59.372Z,37.72
2023-09-10T20:09:27.884Z,36.22
2023-09-10T20:11:55.145Z,42.47
2023-09-10T20:14:23.108Z,32.30
2023-09-10T20:16:50.628Z,35.35
2023-09-10T20:19:19.012Z,31.30
2023-09-10T20:21:47.700Z,30.50
2023-09-10T20:24:15.319Z,30.73
2023-09-10T20:26:42.576Z,38.22
2023-09-10T20:29:09.876Z,34.90
2023-09-10T20:31:37.318Z,33.35
2023-09-10T20:34:05.083Z,32.25
2023-09-10T20:36:32.398Z,35.35
2023-09-10T20:39:00.103Z,48.97
2023-09-10T20:41:27.325Z,41.50
2023-09-10T20:43:55.167Z,38.55
2023-09-10T20:46:22.708Z,40.53
2023-09-10T20:48:50.281Z,35.53
2023-09-10T20:51:32.474Z,32.50
2023-09-10T20:54:00.430Z,34.10
2023-09-10T20:56:27.757Z,28.63
2023-09-10T20:58:55.295Z,36.08
2023-09-10T21:01:23.055Z,29.80
2023-09-10T21:03:50.771Z,25.85
2023-09-10T21:06:18.659Z,28.52
2023-09-10T21:08:46.102Z,27.42
2023-09-10T21:11:14.542Z,28.35
2023-09-10T21:13:42.803Z,30.42
2023-09-10T21:16:12.402Z,27.55
2023-09-10T21:18:39.742Z,28.85
2023-09-10T21:21:07.383Z,32.13
2023-09-10T21:23:35.662Z,32.78
2023-09-10T21:26:06.034Z,37.00
2023-09-10T21:28:33.539Z,25.35
2023-09-10T21:31:01.110Z,41.70
2023-09-10T21:33:28.354Z,32.15
2023-09-10T21:35:56.609Z,25.55
2023-09-10T21:38:24.134Z,34.80
2023-09-10T21:40:51.394Z,36.00
2023-09-10T21:43:19.166Z,33.45
2023-09-10T21:45:46.497Z,35.63
2023-09-10T21:48:16.352Z,34.92
2023-09-10T21:50:44.211Z,36.17
2023-09-10T21:53:11.891Z,30.98
2023-09-10T21:55:39.592Z,42.70
2023-09-10T21:58:07.118Z,38.72
2023-09-10T22:00:34.759Z,32.25
2023-09-10T22:03:02.496Z,32.08
2023-09-10T22:05:29.988Z,41.53
2023-09-10T22:07:57.667Z,38.72
2023-09-10T22:10:25.369Z,34.92
2023-09-10T22:12:52.993Z,37.30
2023-09-10T22:15:20.787Z,38.05
2023-09-10T22:17:48.274Z,31.58
2023-09-10T22:20:15.958Z,33.97
2023-09-10T22:22:43.283Z,30.67
2023-09-10T22:25:14.171Z,35.67
2023-09-10T22:27:42.102Z,32.90
2023-09-10T22:30:10.419Z,31.40
2023-09-10T22:32:38.021Z,32.72
2023-09-10T22:35:06.340Z,34.63
2023-09-10T22:37:33.870Z,35.17
2023-09-10T22:40:01.503Z,36.33
2023-09-10T22:42:29.227Z,34.47
2023-09-10T22:44:57.192Z,31.30
2023-09-10T22:47:24.822Z,27.90
2023-09-10T22:49:53.455Z,33.65
2023-09-10T22:52:20.816Z,29.35
2023-09-10T22:54:47.953Z,31.38
2023-09-10T22:57:15.728Z,47.50
2023-09-10T22:59:43.048Z,56.10
2023-09-10T23:02:10.727Z,41.83
2023-09-10T23:04:38.308Z,37.90
2023-09-10T23:07:06.057Z,31.85
2023-09-10T23:09:33.566Z,34.13
2023-09-10T23:12:00.780Z,33.78
2023-09-10T23:14:28.341Z,32.28
2023-09-10T23:16:55.557Z,25.52
2023-09-10T23:19:23.104Z,28.77
2023-09-10T23:21:50.666Z,32.33
2023-09-10T23:24:18.237Z,34.03
2023-09-10T23:26:49.992Z,28.83
2023-09-10T23:29:18.189Z,28.08
2023-09-10T23:31:48.386Z,29.38
2023-09-10T23:34:16.791Z,30.92
2023-09-10T23:36:44.103Z,29.63
2023-09-10T23:39:11.587Z,30.80
2023-09-10T23:41:39.254Z,23.73
2023-09-10T23:44:06.567Z,24.55
2023-09-10T23:46:34.265Z,29.00
2023-09-10T23:49:01.593Z,25.77
2023-09-10T23:51:29.666Z,24.88
2023-09-10T23:53:57.046Z,19.48
2023-09-10T23:56:24.814Z,29.58
2023-09-10T23:58:52.446Z,25.20
